Allenton, Michigan
Current Conditions -  °F | °C
As of 8:14 AM on Friday 24 Oct 2014 (Local Time) from KD95 Reporting Station
Haze Haze  
Wind Chill:   Ceiling: Unl
Heat Index:   Visibility: 5mi
Dew Point: -1°   Wind: 0mph
Humidity: 99%   Direction: NA
Pressure: 30.06"   Gusts: NA
Location:  42.92°N, 82.95°W
Report Text: KD95 241214Z AUTO 00000KT 5SM BR SCT070 00/M01 A3006 RMK AO2 T10051007
Loading
Personal Weather Stations






























Interactive Weather Map
Tropical Storm Tracking
New forecast layout! Learn more

10-Day Weather Forecast

Advertisements
Track Severe Weather on mobile